sensor_id;sensor_type;location;lat;lon;timestamp;P1;durP1;ratioP1;P2;durP2;ratioP2
24715;SDS011;12822;50.124;8.678;2023-06-14T00:00:36;9.88;;;5.35;;
24715;SDS011;12822;50.124;8.678;2023-06-14T00:03:06;9.43;;;4.13;;
24715;SDS011;12822;50.124;8.678;2023-06-14T00:05:34;8.93;;;5.00;;
24715;SDS011;12822;50.124;8.678;2023-06-14T00:08:05;10.40;;;4.97;;
24715;SDS011;12822;50.124;8.678;2023-06-14T00:10:33;9.63;;;4.82;;
24715;SDS011;12822;50.124;8.678;2023-06-14T00:13:03;7.15;;;4.95;;
24715;SDS011;12822;50.124;8.678;2023-06-14T00:15:30;7.07;;;5.10;;
24715;SDS011;12822;50.124;8.678;2023-06-14T00:17:57;8.80;;;5.28;;
24715;SDS011;12822;50.124;8.678;2023-06-14T00:20:26;11.13;;;5.10;;
24715;SDS011;12822;50.124;8.678;2023-06-14T00:22:52;8.07;;;5.13;;
24715;SDS011;12822;50.124;8.678;2023-06-14T00:25:20;7.90;;;5.05;;
24715;SDS011;12822;50.124;8.678;2023-06-14T00:27:46;5.90;;;4.60;;
24715;SDS011;12822;50.124;8.678;2023-06-14T00:30:12;8.52;;;5.05;;
24715;SDS011;12822;50.124;8.678;2023-06-14T00:32:38;8.63;;;5.38;;
24715;SDS011;12822;50.124;8.678;2023-06-14T00:35:04;7.80;;;5.15;;
24715;SDS011;12822;50.124;8.678;2023-06-14T00:37:30;9.82;;;4.93;;
24715;SDS011;12822;50.124;8.678;2023-06-14T00:39:56;6.20;;;4.50;;
24715;SDS011;12822;50.124;8.678;2023-06-14T00:42:23;8.20;;;5.28;;
24715;SDS011;12822;50.124;8.678;2023-06-14T00:44:49;10.30;;;5.20;;
24715;SDS011;12822;50.124;8.678;2023-06-14T00:47:15;8.63;;;5.20;;
24715;SDS011;12822;50.124;8.678;2023-06-14T00:49:41;8.10;;;4.82;;
24715;SDS011;12822;50.124;8.678;2023-06-14T00:52:07;6.63;;;4.80;;
24715;SDS011;12822;50.124;8.678;2023-06-14T00:54:37;10.45;;;4.57;;
24715;SDS011;12822;50.124;8.678;2023-06-14T00:57:03;9.02;;;4.97;;
24715;SDS011;12822;50.124;8.678;2023-06-14T00:59:29;8.75;;;4.80;;
24715;SDS011;12822;50.124;8.678;2023-06-14T01:01:55;10.80;;;5.28;;
24715;SDS011;12822;50.124;8.678;2023-06-14T01:04:21;11.02;;;4.72;;
24715;SDS011;12822;50.124;8.678;2023-06-14T01:09:46;8.23;;;4.78;;
24715;SDS011;12822;50.124;8.678;2023-06-14T01:12:15;7.22;;;4.78;;
24715;SDS011;12822;50.124;8.678;2023-06-14T01:14:44;7.10;;;4.65;;
24715;SDS011;12822;50.124;8.678;2023-06-14T01:17:11;7.90;;;4.60;;
24715;SDS011;12822;50.124;8.678;2023-06-14T01:19:44;8.98;;;4.97;;
24715;SDS011;12822;50.124;8.678;2023-06-14T01:22:10;9.55;;;4.63;;
24715;SDS011;12822;50.124;8.678;2023-06-14T01:24:37;12.75;;;4.68;;
24715;SDS011;12822;50.124;8.678;2023-06-14T01:27:04;6.93;;;4.70;;
24715;SDS011;12822;50.124;8.678;2023-06-14T01:29:32;10.02;;;4.72;;
24715;SDS011;12822;50.124;8.678;2023-06-14T01:32:01;9.07;;;4.80;;
24715;SDS011;12822;50.124;8.678;2023-06-14T01:34:27;8.50;;;4.40;;
24715;SDS011;12822;50.124;8.678;2023-06-14T01:36:53;7.43;;;4.70;;
24715;SDS011;12822;50.124;8.678;2023-06-14T01:39:22;8.73;;;4.28;;
24715;SDS011;12822;50.124;8.678;2023-06-14T01:41:49;6.90;;;4.60;;
24715;SDS011;12822;50.124;8.678;2023-06-14T01:44:16;10.32;;;4.63;;
24715;SDS011;12822;50.124;8.678;2023-06-14T01:46:43;11.75;;;5.13;;
24715;SDS011;12822;50.124;8.678;2023-06-14T01:49:10;11.15;;;4.70;;
24715;SDS011;12822;50.124;8.678;2023-06-14T01:51:36;7.32;;;5.13;;
24715;SDS011;12822;50.124;8.678;2023-06-14T01:54:02;8.85;;;4.75;;
24715;SDS011;12822;50.124;8.678;2023-06-14T01:56:28;9.63;;;4.50;;
24715;SDS011;12822;50.124;8.678;2023-06-14T01:58:54;9.68;;;4.50;;
24715;SDS011;12822;50.124;8.678;2023-06-14T02:01:21;9.13;;;4.90;;
24715;SDS011;12822;50.124;8.678;2023-06-14T02:03:47;11.40;;;4.85;;
24715;SDS011;12822;50.124;8.678;2023-06-14T02:06:14;11.80;;;5.47;;
24715;SDS011;12822;50.124;8.678;2023-06-14T02:08:41;14.05;;;4.95;;
24715;SDS011;12822;50.124;8.678;2023-06-14T02:11:07;8.85;;;4.72;;
24715;SDS011;12822;50.124;8.678;2023-06-14T02:13:33;9.38;;;5.00;;
24715;SDS011;12822;50.124;8.678;2023-06-14T02:15:59;11.15;;;5.07;;
24715;SDS011;12822;50.124;8.678;2023-06-14T02:18:25;9.02;;;5.00;;
24715;SDS011;12822;50.124;8.678;2023-06-14T02:20:52;9.25;;;4.90;;
24715;SDS011;12822;50.124;8.678;2023-06-14T02:23:18;8.52;;;4.97;;
24715;SDS011;12822;50.124;8.678;2023-06-14T02:25:44;8.50;;;4.43;;
24715;SDS011;12822;50.124;8.678;2023-06-14T02:28:11;9.50;;;4.47;;
24715;SDS011;12822;50.124;8.678;2023-06-14T02:30:37;10.60;;;4.85;;
24715;SDS011;12822;50.124;8.678;2023-06-14T02:33:04;9.68;;;4.57;;
24715;SDS011;12822;50.124;8.678;2023-06-14T02:35:30;7.32;;;4.57;;
24715;SDS011;12822;50.124;8.678;2023-06-14T02:37:56;9.77;;;4.97;;
24715;SDS011;12822;50.124;8.678;2023-06-14T02:40:22;8.48;;;5.15;;
24715;SDS011;12822;50.124;8.678;2023-06-14T02:42:48;6.63;;;4.70;;
24715;SDS011;12822;50.124;8.678;2023-06-14T02:45:14;7.35;;;5.10;;
24715;SDS011;12822;50.124;8.678;2023-06-14T02:47:40;8.10;;;4.47;;
24715;SDS011;12822;50.124;8.678;2023-06-14T02:50:07;9.95;;;4.55;;
24715;SDS011;12822;50.124;8.678;2023-06-14T02:52:33;8.82;;;4.85;;
24715;SDS011;12822;50.124;8.678;2023-06-14T02:54:59;11.63;;;4.68;;
24715;SDS011;12822;50.124;8.678;2023-06-14T02:57:25;10.52;;;4.65;;
24715;SDS011;12822;50.124;8.678;2023-06-14T02:59:51;10.35;;;4.70;;
24715;SDS011;12822;50.124;8.678;2023-06-14T03:02:17;11.77;;;4.70;;
24715;SDS011;12822;50.124;8.678;2023-06-14T03:04:43;8.82;;;4.90;;
24715;SDS011;12822;50.124;8.678;2023-06-14T03:07:11;10.40;;;4.80;;
24715;SDS011;12822;50.124;8.678;2023-06-14T03:09:38;8.15;;;4.72;;
24715;SDS011;12822;50.124;8.678;2023-06-14T03:12:05;9.00;;;4.40;;
24715;SDS011;12822;50.124;8.678;2023-06-14T03:14:32;6.78;;;4.53;;
24715;SDS011;12822;50.124;8.678;2023-06-14T03:16:58;6.18;;;4.38;;
24715;SDS011;12822;50.124;8.678;2023-06-14T03:19:25;7.53;;;4.35;;
24715;SDS011;12822;50.124;8.678;2023-06-14T03:21:51;20.55;;;4.28;;
24715;SDS011;12822;50.124;8.678;2023-06-14T03:24:18;10.85;;;4.07;;
24715;SDS011;12822;50.124;8.678;2023-06-14T03:26:44;8.75;;;4.50;;
24715;SDS011;12822;50.124;8.678;2023-06-14T03:29:11;10.85;;;4.43;;
24715;SDS011;12822;50.124;8.678;2023-06-14T03:31:41;12.35;;;4.78;;
24715;SDS011;12822;50.124;8.678;2023-06-14T03:34:21;7.22;;;4.20;;
24715;SDS011;12822;50.124;8.678;2023-06-14T03:36:47;7.72;;;4.50;;
24715;SDS011;12822;50.124;8.678;2023-06-14T03:39:14;9.25;;;5.22;;
24715;SDS011;12822;50.124;8.678;2023-06-14T03:41:40;10.00;;;5.18;;
24715;SDS011;12822;50.124;8.678;2023-06-14T03:44:06;8.70;;;4.32;;
24715;SDS011;12822;50.124;8.678;2023-06-14T03:46:32;11.40;;;4.82;;
24715;SDS011;12822;50.124;8.678;2023-06-14T03:48:58;11.05;;;4.85;;
24715;SDS011;12822;50.124;8.678;2023-06-14T03:51:25;7.55;;;4.88;;
24715;SDS011;12822;50.124;8.678;2023-06-14T03:53:51;7.88;;;4.28;;
24715;SDS011;12822;50.124;8.678;2023-06-14T03:56:17;7.57;;;4.50;;
24715;SDS011;12822;50.124;8.678;2023-06-14T03:58:43;7.72;;;4.32;;
24715;SDS011;12822;50.124;8.678;2023-06-14T04:01:09;11.85;;;4.35;;
24715;SDS011;12822;50.124;8.678;2023-06-14T04:03:37;18.55;;;5.13;;
24715;SDS011;12822;50.124;8.678;2023-06-14T04:06:03;8.95;;;4.07;;
24715;SDS011;12822;50.124;8.678;2023-06-14T04:08:30;8.43;;;4.20;;
24715;SDS011;12822;50.124;8.678;2023-06-14T04:10:56;8.77;;;4.65;;
24715;SDS011;12822;50.124;8.678;2023-06-14T04:13:22;9.80;;;4.88;;
24715;SDS011;12822;50.124;8.678;2023-06-14T04:15:48;13.45;;;4.93;;
24715;SDS011;12822;50.124;8.678;2023-06-14T04:18:14;15.70;;;4.70;;
24715;SDS011;12822;50.124;8.678;2023-06-14T04:20:40;7.75;;;4.38;;
24715;SDS011;12822;50.124;8.678;2023-06-14T04:23:12;8.77;;;4.45;;
24715;SDS011;12822;50.124;8.678;2023-06-14T04:25:39;10.95;;;4.57;;
24715;SDS011;12822;50.124;8.678;2023-06-14T04:28:05;11.13;;;4.20;;
24715;SDS011;12822;50.124;8.678;2023-06-14T04:30:34;8.27;;;4.93;;
24715;SDS011;12822;50.124;8.678;2023-06-14T04:33:00;6.20;;;4.15;;
24715;SDS011;12822;50.124;8.678;2023-06-14T04:35:30;9.40;;;4.28;;
24715;SDS011;12822;50.124;8.678;2023-06-14T04:37:58;12.27;;;4.68;;
24715;SDS011;12822;50.124;8.678;2023-06-14T04:40:24;6.60;;;3.80;;
24715;SDS011;12822;50.124;8.678;2023-06-14T04:42:50;11.05;;;4.57;;
24715;SDS011;12822;50.124;8.678;2023-06-14T04:45:17;7.40;;;4.15;;
24715;SDS011;12822;50.124;8.678;2023-06-14T04:47:44;5.68;;;3.78;;
24715;SDS011;12822;50.124;8.678;2023-06-14T04:50:11;9.48;;;4.47;;
24715;SDS011;12822;50.124;8.678;2023-06-14T04:52:38;8.60;;;4.57;;
24715;SDS011;12822;50.124;8.678;2023-06-14T04:55:04;8.02;;;4.35;;
24715;SDS011;12822;50.124;8.678;2023-06-14T04:57:30;9.07;;;4.38;;
24715;SDS011;12822;50.124;8.678;2023-06-14T04:59:57;11.45;;;4.85;;
24715;SDS011;12822;50.124;8.678;2023-06-14T05:02:25;9.75;;;4.55;;
24715;SDS011;12822;50.124;8.678;2023-06-14T05:04:52;11.65;;;3.92;;
24715;SDS011;12822;50.124;8.678;2023-06-14T05:07:19;10.40;;;4.22;;
24715;SDS011;12822;50.124;8.678;2023-06-14T05:09:45;10.82;;;4.40;;
24715;SDS011;12822;50.124;8.678;2023-06-14T05:12:13;14.23;;;4.47;;
24715;SDS011;12822;50.124;8.678;2023-06-14T05:14:43;11.20;;;4.63;;
24715;SDS011;12822;50.124;8.678;2023-06-14T05:17:09;10.00;;;4.07;;
24715;SDS011;12822;50.124;8.678;2023-06-14T05:19:35;7.00;;;4.63;;
24715;SDS011;12822;50.124;8.678;2023-06-14T05:22:01;7.53;;;4.78;;
24715;SDS011;12822;50.124;8.678;2023-06-14T05:24:28;7.53;;;3.92;;
24715;SDS011;12822;50.124;8.678;2023-06-14T05:26:55;6.80;;;4.10;;
24715;SDS011;12822;50.124;8.678;2023-06-14T05:29:21;7.35;;;4.45;;
24715;SDS011;12822;50.124;8.678;2023-06-14T05:31:48;11.57;;;4.03;;
24715;SDS011;12822;50.124;8.678;2023-06-14T05:34:14;7.20;;;3.78;;
24715;SDS011;12822;50.124;8.678;2023-06-14T05:36:43;15.40;;;4.72;;
24715;SDS011;12822;50.124;8.678;2023-06-14T05:39:09;8.43;;;4.45;;
24715;SDS011;12822;50.124;8.678;2023-06-14T05:41:35;10.73;;;4.78;;
24715;SDS011;12822;50.124;8.678;2023-06-14T05:44:01;10.23;;;4.00;;
24715;SDS011;12822;50.124;8.678;2023-06-14T05:46:27;10.35;;;4.22;;
24715;SDS011;12822;50.124;8.678;2023-06-14T05:48:53;10.38;;;4.07;;
24715;SDS011;12822;50.124;8.678;2023-06-14T05:51:20;10.13;;;4.18;;
24715;SDS011;12822;50.124;8.678;2023-06-14T05:53:49;6.65;;;4.05;;
24715;SDS011;12822;50.124;8.678;2023-06-14T05:56:15;9.48;;;3.88;;
24715;SDS011;12822;50.124;8.678;2023-06-14T05:58:42;15.90;;;4.63;;
24715;SDS011;12822;50.124;8.678;2023-06-14T06:01:08;8.95;;;4.47;;
24715;SDS011;12822;50.124;8.678;2023-06-14T06:03:35;7.22;;;4.15;;
24715;SDS011;12822;50.124;8.678;2023-06-14T06:06:01;14.15;;;4.32;;
24715;SDS011;12822;50.124;8.678;2023-06-14T06:08:28;13.88;;;4.57;;
24715;SDS011;12822;50.124;8.678;2023-06-14T06:10:54;13.68;;;4.10;;
24715;SDS011;12822;50.124;8.678;2023-06-14T06:13:21;9.98;;;4.07;;
24715;SDS011;12822;50.124;8.678;2023-06-14T06:15:47;13.90;;;4.57;;
24715;SDS011;12822;50.124;8.678;2023-06-14T06:18:14;9.65;;;3.60;;
24715;SDS011;12822;50.124;8.678;2023-06-14T06:20:40;12.57;;;4.88;;
24715;SDS011;12822;50.124;8.678;2023-06-14T06:23:06;10.23;;;4.28;;
24715;SDS011;12822;50.124;8.678;2023-06-14T06:25:34;8.02;;;4.20;;
24715;SDS011;12822;50.124;8.678;2023-06-14T06:28:00;12.98;;;4.97;;
24715;SDS011;12822;50.124;8.678;2023-06-14T06:30:26;17.15;;;4.43;;
24715;SDS011;12822;50.124;8.678;2023-06-14T06:32:52;8.32;;;4.13;;
24715;SDS011;12822;50.124;8.678;2023-06-14T06:35:20;9.10;;;3.80;;
24715;SDS011;12822;50.124;8.678;2023-06-14T06:37:46;10.90;;;4.13;;
24715;SDS011;12822;50.124;8.678;2023-06-14T06:40:15;8.20;;;3.97;;
24715;SDS011;12822;50.124;8.678;2023-06-14T06:42:41;6.90;;;3.95;;
24715;SDS011;12822;50.124;8.678;2023-06-14T06:45:07;9.00;;;3.75;;
24715;SDS011;12822;50.124;8.678;2023-06-14T06:47:33;4.88;;;3.38;;
24715;SDS011;12822;50.124;8.678;2023-06-14T06:50:00;9.02;;;3.55;;
24715;SDS011;12822;50.124;8.678;2023-06-14T06:52:26;6.28;;;3.85;;
24715;SDS011;12822;50.124;8.678;2023-06-14T06:54:52;12.52;;;3.95;;
24715;SDS011;12822;50.124;8.678;2023-06-14T06:57:20;8.85;;;3.80;;
24715;SDS011;12822;50.124;8.678;2023-06-14T06:59:47;13.63;;;4.20;;
24715;SDS011;12822;50.124;8.678;2023-06-14T07:02:13;12.48;;;4.47;;
24715;SDS011;12822;50.124;8.678;2023-06-14T07:04:40;11.70;;;3.30;;
24715;SDS011;12822;50.124;8.678;2023-06-14T07:07:06;12.18;;;3.35;;
24715;SDS011;12822;50.124;8.678;2023-06-14T07:09:35;8.25;;;3.38;;
24715;SDS011;12822;50.124;8.678;2023-06-14T07:12:01;8.52;;;3.13;;
24715;SDS011;12822;50.124;8.678;2023-06-14T07:14:27;6.15;;;2.80;;
24715;SDS011;12822;50.124;8.678;2023-06-14T07:16:55;4.47;;;2.63;;
24715;SDS011;12822;50.124;8.678;2023-06-14T07:19:21;6.13;;;2.50;;
24715;SDS011;12822;50.124;8.678;2023-06-14T07:21:47;6.47;;;2.30;;
24715;SDS011;12822;50.124;8.678;2023-06-14T07:24:13;5.68;;;2.15;;
24715;SDS011;12822;50.124;8.678;2023-06-14T07:26:39;8.45;;;2.20;;
24715;SDS011;12822;50.124;8.678;2023-06-14T07:29:05;4.43;;;2.60;;
24715;SDS011;12822;50.124;8.678;2023-06-14T07:31:31;6.63;;;2.80;;
24715;SDS011;12822;50.124;8.678;2023-06-14T07:33:57;5.88;;;2.60;;
24715;SDS011;12822;50.124;8.678;2023-06-14T07:36:23;7.93;;;2.30;;
24715;SDS011;12822;50.124;8.678;2023-06-14T07:38:49;4.75;;;2.20;;
24715;SDS011;12822;50.124;8.678;2023-06-14T07:41:16;6.20;;;2.10;;
24715;SDS011;12822;50.124;8.678;2023-06-14T07:43:42;6.57;;;2.42;;
24715;SDS011;12822;50.124;8.678;2023-06-14T07:46:08;7.45;;;2.40;;
24715;SDS011;12822;50.124;8.678;2023-06-14T07:48:34;3.70;;;2.22;;
24715;SDS011;12822;50.124;8.678;2023-06-14T07:51:01;6.57;;;2.47;;
24715;SDS011;12822;50.124;8.678;2023-06-14T07:53:27;5.88;;;2.08;;
24715;SDS011;12822;50.124;8.678;2023-06-14T07:55:53;5.88;;;2.63;;
24715;SDS011;12822;50.124;8.678;2023-06-14T07:58:19;6.43;;;2.63;;
24715;SDS011;12822;50.124;8.678;2023-06-14T08:00:45;4.28;;;2.60;;
24715;SDS011;12822;50.124;8.678;2023-06-14T08:03:12;4.22;;;2.10;;
24715;SDS011;12822;50.124;8.678;2023-06-14T08:05:39;5.03;;;2.20;;
24715;SDS011;12822;50.124;8.678;2023-06-14T08:08:05;4.32;;;2.25;;
24715;SDS011;12822;50.124;8.678;2023-06-14T08:10:31;4.13;;;1.92;;
24715;SDS011;12822;50.124;8.678;2023-06-14T08:12:57;2.75;;;1.63;;
24715;SDS011;12822;50.124;8.678;2023-06-14T08:15:23;5.72;;;2.15;;
24715;SDS011;12822;50.124;8.678;2023-06-14T08:17:49;2.83;;;1.83;;
24715;SDS011;12822;50.124;8.678;2023-06-14T08:20:16;7.38;;;2.08;;
24715;SDS011;12822;50.124;8.678;2023-06-14T08:22:42;3.92;;;2.20;;
24715;SDS011;12822;50.124;8.678;2023-06-14T08:25:08;4.90;;;2.10;;
24715;SDS011;12822;50.124;8.678;2023-06-14T08:27:35;3.83;;;1.77;;
24715;SDS011;12822;50.124;8.678;2023-06-14T08:30:01;4.80;;;2.00;;
24715;SDS011;12822;50.124;8.678;2023-06-14T08:32:28;2.85;;;1.65;;
24715;SDS011;12822;50.124;8.678;2023-06-14T08:34:54;2.85;;;1.90;;
24715;SDS011;12822;50.124;8.678;2023-06-14T08:37:20;6.53;;;1.90;;
24715;SDS011;12822;50.124;8.678;2023-06-14T08:39:46;6.28;;;1.73;;
24715;SDS011;12822;50.124;8.678;2023-06-14T08:42:12;3.15;;;1.67;;
24715;SDS011;12822;50.124;8.678;2023-06-14T08:44:39;4.13;;;1.45;;
24715;SDS011;12822;50.124;8.678;2023-06-14T08:47:05;4.82;;;1.70;;
24715;SDS011;12822;50.124;8.678;2023-06-14T08:49:33;7.80;;;1.50;;
24715;SDS011;12822;50.124;8.678;2023-06-14T08:52:01;9.98;;;1.92;;
24715;SDS011;12822;50.124;8.678;2023-06-14T08:54:29;4.53;;;1.70;;
24715;SDS011;12822;50.124;8.678;2023-06-14T08:56:58;3.58;;;1.40;;
24715;SDS011;12822;50.124;8.678;2023-06-14T08:59:25;3.53;;;1.42;;
24715;SDS011;12822;50.124;8.678;2023-06-14T09:01:52;4.00;;;1.50;;
24715;SDS011;12822;50.124;8.678;2023-06-14T09:04:19;2.33;;;1.60;;
24715;SDS011;12822;50.124;8.678;2023-06-14T09:06:46;2.88;;;1.60;;
24715;SDS011;12822;50.124;8.678;2023-06-14T09:09:17;3.20;;;1.73;;
24715;SDS011;12822;50.124;8.678;2023-06-14T09:11:43;6.95;;;1.90;;
24715;SDS011;12822;50.124;8.678;2023-06-14T09:14:09;2.42;;;1.65;;
24715;SDS011;12822;50.124;8.678;2023-06-14T09:16:35;7.00;;;2.53;;
24715;SDS011;12822;50.124;8.678;2023-06-14T09:19:02;4.88;;;1.98;;
24715;SDS011;12822;50.124;8.678;2023-06-14T09:21:28;3.58;;;1.50;;
24715;SDS011;12822;50.124;8.678;2023-06-14T09:26:25;3.35;;;1.58;;
24715;SDS011;12822;50.124;8.678;2023-06-14T09:28:52;2.95;;;1.38;;
24715;SDS011;12822;50.124;8.678;2023-06-14T09:31:20;3.92;;;1.65;;
24715;SDS011;12822;50.124;8.678;2023-06-14T09:33:50;2.47;;;1.27;;
24715;SDS011;12822;50.124;8.678;2023-06-14T09:36:23;3.50;;;1.70;;
24715;SDS011;12822;50.124;8.678;2023-06-14T09:38:56;7.22;;;5.57;;
24715;SDS011;12822;50.124;8.678;2023-06-14T09:41:35;5.03;;;3.40;;
24715;SDS011;12822;50.124;8.678;2023-06-14T09:44:02;3.17;;;2.03;;
24715;SDS011;12822;50.124;8.678;2023-06-14T09:46:29;3.78;;;1.95;;
24715;SDS011;12822;50.124;8.678;2023-06-14T09:48:56;3.45;;;1.67;;
24715;SDS011;12822;50.124;8.678;2023-06-14T09:51:22;4.85;;;1.95;;
24715;SDS011;12822;50.124;8.678;2023-06-14T09:53:49;2.00;;;1.58;;
24715;SDS011;12822;50.124;8.678;2023-06-14T09:56:22;5.03;;;1.63;;
24715;SDS011;12822;50.124;8.678;2023-06-14T09:58:49;2.78;;;1.63;;
24715;SDS011;12822;50.124;8.678;2023-06-14T10:03:45;4.35;;;1.50;;
24715;SDS011;12822;50.124;8.678;2023-06-14T10:06:13;4.28;;;1.50;;
24715;SDS011;12822;50.124;8.678;2023-06-14T10:08:39;3.72;;;2.05;;
24715;SDS011;12822;50.124;8.678;2023-06-14T10:11:06;2.58;;;1.65;;
24715;SDS011;12822;50.124;8.678;2023-06-14T10:13:32;1.92;;;1.40;;
24715;SDS011;12822;50.124;8.678;2023-06-14T10:16:07;1.77;;;1.45;;
24715;SDS011;12822;50.124;8.678;2023-06-14T10:21:13;3.30;;;1.48;;
24715;SDS011;12822;50.124;8.678;2023-06-14T10:23:42;6.28;;;1.90;;
24715;SDS011;12822;50.124;8.678;2023-06-14T10:26:17;3.72;;;2.08;;
24715;SDS011;12822;50.124;8.678;2023-06-14T10:28:54;2.17;;;1.40;;
24715;SDS011;12822;50.124;8.678;2023-06-14T10:31:21;3.45;;;1.60;;
24715;SDS011;12822;50.124;8.678;2023-06-14T10:33:48;5.82;;;1.65;;
24715;SDS011;12822;50.124;8.678;2023-06-14T10:36:30;1.60;;;1.45;;
24715;SDS011;12822;50.124;8.678;2023-06-14T10:39:18;1.80;;;1.27;;
24715;SDS011;12822;50.124;8.678;2023-06-14T10:41:51;2.75;;;1.88;;
24715;SDS011;12822;50.124;8.678;2023-06-14T10:46:47;4.03;;;1.58;;
24715;SDS011;12822;50.124;8.678;2023-06-14T10:49:17;6.63;;;1.60;;
24715;SDS011;12822;50.124;8.678;2023-06-14T10:51:44;4.10;;;1.50;;
24715;SDS011;12822;50.124;8.678;2023-06-14T10:54:17;8.05;;;1.70;;
24715;SDS011;12822;50.124;8.678;2023-06-14T10:56:46;5.88;;;1.58;;
24715;SDS011;12822;50.124;8.678;2023-06-14T10:59:13;4.97;;;1.70;;
24715;SDS011;12822;50.124;8.678;2023-06-14T11:04:15;3.33;;;1.73;;
24715;SDS011;12822;50.124;8.678;2023-06-14T11:06:49;5.13;;;1.80;;
24715;SDS011;12822;50.124;8.678;2023-06-14T11:12:03;4.85;;;1.65;;
24715;SDS011;12822;50.124;8.678;2023-06-14T11:14:30;4.72;;;1.70;;
24715;SDS011;12822;50.124;8.678;2023-06-14T11:16:56;4.38;;;1.65;;
24715;SDS011;12822;50.124;8.678;2023-06-14T11:19:22;2.45;;;1.58;;
24715;SDS011;12822;50.124;8.678;2023-06-14T11:21:49;2.22;;;1.70;;
24715;SDS011;12822;50.124;8.678;2023-06-14T11:24:16;3.88;;;2.28;;
24715;SDS011;12822;50.124;8.678;2023-06-14T11:26:42;3.22;;;1.67;;
24715;SDS011;12822;50.124;8.678;2023-06-14T11:29:08;3.80;;;1.88;;
24715;SDS011;12822;50.124;8.678;2023-06-14T11:31:34;2.88;;;2.10;;
24715;SDS011;12822;50.124;8.678;2023-06-14T11:34:00;4.15;;;1.83;;
24715;SDS011;12822;50.124;8.678;2023-06-14T11:36:27;6.78;;;1.85;;
24715;SDS011;12822;50.124;8.678;2023-06-14T11:39:02;3.13;;;1.90;;
24715;SDS011;12822;50.124;8.678;2023-06-14T11:41:37;4.15;;;2.10;;
24715;SDS011;12822;50.124;8.678;2023-06-14T11:44:04;6.32;;;2.05;;
24715;SDS011;12822;50.124;8.678;2023-06-14T11:46:30;3.13;;;1.52;;
24715;SDS011;12822;50.124;8.678;2023-06-14T11:48:56;3.30;;;1.70;;
24715;SDS011;12822;50.124;8.678;2023-06-14T11:51:23;5.35;;;1.60;;
24715;SDS011;12822;50.124;8.678;2023-06-14T11:53:49;4.38;;;2.08;;
24715;SDS011;12822;50.124;8.678;2023-06-14T11:56:15;2.33;;;1.75;;
24715;SDS011;12822;50.124;8.678;2023-06-14T11:58:44;4.63;;;1.90;;
24715;SDS011;12822;50.124;8.678;2023-06-14T12:01:14;3.25;;;1.60;;
24715;SDS011;12822;50.124;8.678;2023-06-14T12:03:46;7.43;;;1.40;;
24715;SDS011;12822;50.124;8.678;2023-06-14T12:06:13;3.78;;;1.60;;
24715;SDS011;12822;50.124;8.678;2023-06-14T12:08:39;2.35;;;1.92;;
24715;SDS011;12822;50.124;8.678;2023-06-14T12:11:06;4.57;;;2.00;;
24715;SDS011;12822;50.124;8.678;2023-06-14T12:13:33;4.60;;;2.10;;
24715;SDS011;12822;50.124;8.678;2023-06-14T12:16:01;3.55;;;2.00;;
24715;SDS011;12822;50.124;8.678;2023-06-14T12:18:34;6.63;;;2.05;;
24715;SDS011;12822;50.124;8.678;2023-06-14T12:21:01;3.53;;;2.10;;
24715;SDS011;12822;50.124;8.678;2023-06-14T12:23:49;5.68;;;1.98;;
24715;SDS011;12822;50.124;8.678;2023-06-14T12:26:17;6.00;;;2.28;;
24715;SDS011;12822;50.124;8.678;2023-06-14T12:28:46;9.32;;;2.22;;
24715;SDS011;12822;50.124;8.678;2023-06-14T12:31:13;5.40;;;2.05;;
24715;SDS011;12822;50.124;8.678;2023-06-14T12:33:40;5.20;;;2.20;;
24715;SDS011;12822;50.124;8.678;2023-06-14T12:36:07;3.65;;;2.58;;
24715;SDS011;12822;50.124;8.678;2023-06-14T12:38:33;2.85;;;1.95;;
24715;SDS011;12822;50.124;8.678;2023-06-14T12:40:59;4.70;;;2.30;;
24715;SDS011;12822;50.124;8.678;2023-06-14T12:43:26;9.93;;;2.22;;
24715;SDS011;12822;50.124;8.678;2023-06-14T12:45:52;2.58;;;1.83;;
24715;SDS011;12822;50.124;8.678;2023-06-14T12:48:19;6.13;;;2.28;;
24715;SDS011;12822;50.124;8.678;2023-06-14T12:50:47;8.98;;;1.98;;
24715;SDS011;12822;50.124;8.678;2023-06-14T12:53:13;7.95;;;2.30;;
24715;SDS011;12822;50.124;8.678;2023-06-14T12:55:40;4.75;;;2.10;;
24715;SDS011;12822;50.124;8.678;2023-06-14T12:58:06;4.18;;;2.20;;
24715;SDS011;12822;50.124;8.678;2023-06-14T13:00:32;3.78;;;2.08;;
24715;SDS011;12822;50.124;8.678;2023-06-14T13:02:58;5.03;;;2.08;;
24715;SDS011;12822;50.124;8.678;2023-06-14T13:05:24;7.32;;;1.92;;
24715;SDS011;12822;50.124;8.678;2023-06-14T13:07:50;4.65;;;1.85;;
24715;SDS011;12822;50.124;8.678;2023-06-14T13:10:16;5.28;;;2.00;;
24715;SDS011;12822;50.124;8.678;2023-06-14T13:12:42;3.42;;;2.05;;
24715;SDS011;12822;50.124;8.678;2023-06-14T13:15:09;3.53;;;1.70;;
24715;SDS011;12822;50.124;8.678;2023-06-14T13:17:35;6.50;;;2.20;;
24715;SDS011;12822;50.124;8.678;2023-06-14T13:20:07;7.50;;;2.00;;
24715;SDS011;12822;50.124;8.678;2023-06-14T13:22:34;3.20;;;2.10;;
24715;SDS011;12822;50.124;8.678;2023-06-14T13:25:01;4.35;;;2.25;;
24715;SDS011;12822;50.124;8.678;2023-06-14T13:27:27;2.97;;;2.10;;
24715;SDS011;12822;50.124;8.678;2023-06-14T13:29:53;5.07;;;2.08;;
24715;SDS011;12822;50.124;8.678;2023-06-14T13:32:23;3.58;;;2.20;;
24715;SDS011;12822;50.124;8.678;2023-06-14T13:34:49;4.78;;;1.90;;
24715;SDS011;12822;50.124;8.678;2023-06-14T13:37:16;4.45;;;2.00;;
24715;SDS011;12822;50.124;8.678;2023-06-14T13:39:42;3.25;;;1.65;;
24715;SDS011;12822;50.124;8.678;2023-06-14T13:42:08;2.72;;;1.92;;
24715;SDS011;12822;50.124;8.678;2023-06-14T13:44:35;3.20;;;1.90;;
24715;SDS011;12822;50.124;8.678;2023-06-14T13:47:01;6.22;;;2.40;;
24715;SDS011;12822;50.124;8.678;2023-06-14T13:49:27;5.07;;;1.77;;
24715;SDS011;12822;50.124;8.678;2023-06-14T13:51:53;1.95;;;1.75;;
24715;SDS011;12822;50.124;8.678;2023-06-14T13:54:20;6.07;;;2.00;;
24715;SDS011;12822;50.124;8.678;2023-06-14T13:56:46;5.65;;;2.20;;
24715;SDS011;12822;50.124;8.678;2023-06-14T13:59:13;5.60;;;2.30;;
24715;SDS011;12822;50.124;8.678;2023-06-14T14:01:39;5.22;;;2.00;;
24715;SDS011;12822;50.124;8.678;2023-06-14T14:04:05;6.55;;;2.10;;
24715;SDS011;12822;50.124;8.678;2023-06-14T14:06:31;3.60;;;2.20;;
24715;SDS011;12822;50.124;8.678;2023-06-14T14:08:57;9.82;;;2.20;;
24715;SDS011;12822;50.124;8.678;2023-06-14T14:11:24;3.88;;;2.25;;
24715;SDS011;12822;50.124;8.678;2023-06-14T14:13:49;5.22;;;2.40;;
24715;SDS011;12822;50.124;8.678;2023-06-14T14:16:16;3.33;;;2.03;;
24715;SDS011;12822;50.124;8.678;2023-06-14T14:18:42;2.63;;;2.10;;
24715;SDS011;12822;50.124;8.678;2023-06-14T14:21:08;5.53;;;1.90;;
24715;SDS011;12822;50.124;8.678;2023-06-14T14:23:34;5.90;;;2.20;;
24715;SDS011;12822;50.124;8.678;2023-06-14T14:26:00;5.47;;;2.22;;
24715;SDS011;12822;50.124;8.678;2023-06-14T14:28:29;7.15;;;2.40;;
24715;SDS011;12822;50.124;8.678;2023-06-14T14:30:55;5.63;;;2.15;;
24715;SDS011;12822;50.124;8.678;2023-06-14T14:33:21;3.90;;;2.20;;
24715;SDS011;12822;50.124;8.678;2023-06-14T14:35:47;5.85;;;2.20;;
24715;SDS011;12822;50.124;8.678;2023-06-14T14:38:13;2.88;;;1.77;;
24715;SDS011;12822;50.124;8.678;2023-06-14T14:40:41;5.68;;;1.90;;
24715;SDS011;12822;50.124;8.678;2023-06-14T14:43:07;3.60;;;2.35;;
24715;SDS011;12822;50.124;8.678;2023-06-14T14:45:33;3.67;;;1.83;;
24715;SDS011;12822;50.124;8.678;2023-06-14T14:48:00;3.50;;;1.92;;
24715;SDS011;12822;50.124;8.678;2023-06-14T14:50:26;6.50;;;2.00;;
24715;SDS011;12822;50.124;8.678;2023-06-14T14:52:52;2.90;;;2.00;;
24715;SDS011;12822;50.124;8.678;2023-06-14T14:55:18;5.55;;;2.08;;
24715;SDS011;12822;50.124;8.678;2023-06-14T14:57:45;7.18;;;2.20;;
24715;SDS011;12822;50.124;8.678;2023-06-14T15:00:11;4.90;;;2.08;;
24715;SDS011;12822;50.124;8.678;2023-06-14T15:02:37;2.92;;;1.80;;